sensor_id;sensor_type;location;lat;lon;timestamp;P1;durP1;ratioP1;P2;durP2;ratioP2
8993;SDS011;4532;50.886;4.700;2023-06-14T00:01:28;7.85;;;5.30;;
8993;SDS011;4532;50.886;4.700;2023-06-14T00:04:01;5.55;;;5.00;;
8993;SDS011;4532;50.886;4.700;2023-06-14T00:06:28;5.72;;;5.05;;
8993;SDS011;4532;50.886;4.700;2023-06-14T00:08:56;6.07;;;5.15;;
8993;SDS011;4532;50.886;4.700;2023-06-14T00:11:23;7.20;;;5.25;;
8993;SDS011;4532;50.886;4.700;2023-06-14T00:13:50;8.13;;;5.70;;
8993;SDS011;4532;50.886;4.700;2023-06-14T00:16:17;6.55;;;5.50;;
8993;SDS011;4532;50.886;4.700;2023-06-14T00:18:46;6.15;;;5.15;;
8993;SDS011;4532;50.886;4.700;2023-06-14T00:21:13;6.57;;;5.03;;
8993;SDS011;4532;50.886;4.700;2023-06-14T00:23:45;6.38;;;5.78;;
8993;SDS011;4532;50.886;4.700;2023-06-14T00:26:14;6.00;;;5.40;;
8993;SDS011;4532;50.886;4.700;2023-06-14T00:28:44;7.50;;;5.80;;
8993;SDS011;4532;50.886;4.700;2023-06-14T00:31:16;6.80;;;6.10;;
8993;SDS011;4532;50.886;4.700;2023-06-14T00:33:43;6.55;;;5.40;;
8993;SDS011;4532;50.886;4.700;2023-06-14T00:36:13;6.82;;;5.50;;
8993;SDS011;4532;50.886;4.700;2023-06-14T00:38:40;9.57;;;5.53;;
8993;SDS011;4532;50.886;4.700;2023-06-14T00:41:07;9.50;;;5.93;;
8993;SDS011;4532;50.886;4.700;2023-06-14T00:43:34;9.00;;;6.47;;
8993;SDS011;4532;50.886;4.700;2023-06-14T00:46:06;6.68;;;5.97;;
8993;SDS011;4532;50.886;4.700;2023-06-14T00:48:33;7.65;;;6.00;;
8993;SDS011;4532;50.886;4.700;2023-06-14T00:51:07;8.00;;;5.80;;
8993;SDS011;4532;50.886;4.700;2023-06-14T00:53:35;7.10;;;6.10;;
8993;SDS011;4532;50.886;4.700;2023-06-14T00:56:03;7.15;;;5.80;;
8993;SDS011;4532;50.886;4.700;2023-06-14T00:58:32;5.90;;;5.30;;
8993;SDS011;4532;50.886;4.700;2023-06-14T01:01:00;6.65;;;6.05;;
8993;SDS011;4532;50.886;4.700;2023-06-14T01:03:31;6.43;;;5.80;;
8993;SDS011;4532;50.886;4.700;2023-06-14T01:06:29;6.28;;;5.60;;
8993;SDS011;4532;50.886;4.700;2023-06-14T01:12:07;7.50;;;5.88;;
8993;SDS011;4532;50.886;4.700;2023-06-14T01:14:37;6.72;;;5.60;;
8993;SDS011;4532;50.886;4.700;2023-06-14T01:17:08;6.22;;;5.45;;
8993;SDS011;4532;50.886;4.700;2023-06-14T01:19:43;5.70;;;5.20;;
8993;SDS011;4532;50.886;4.700;2023-06-14T01:22:14;7.07;;;5.75;;
8993;SDS011;4532;50.886;4.700;2023-06-14T01:24:44;9.27;;;6.00;;
8993;SDS011;4532;50.886;4.700;2023-06-14T01:27:16;6.78;;;5.53;;
8993;SDS011;4532;50.886;4.700;2023-06-14T01:29:45;6.82;;;5.80;;
8993;SDS011;4532;50.886;4.700;2023-06-14T01:32:14;8.02;;;5.53;;
8993;SDS011;4532;50.886;4.700;2023-06-14T01:34:45;10.05;;;5.65;;
8993;SDS011;4532;50.886;4.700;2023-06-14T01:37:17;7.05;;;5.88;;
8993;SDS011;4532;50.886;4.700;2023-06-14T01:39:48;7.22;;;5.53;;
8993;SDS011;4532;50.886;4.700;2023-06-14T01:42:16;6.57;;;5.50;;
8993;SDS011;4532;50.886;4.700;2023-06-14T01:44:44;6.28;;;5.68;;
8993;SDS011;4532;50.886;4.700;2023-06-14T01:47:15;8.60;;;6.45;;
8993;SDS011;4532;50.886;4.700;2023-06-14T01:49:44;7.93;;;5.80;;
8993;SDS011;4532;50.886;4.700;2023-06-14T01:52:15;6.65;;;5.95;;
8993;SDS011;4532;50.886;4.700;2023-06-14T01:54:48;7.85;;;5.68;;
8993;SDS011;4532;50.886;4.700;2023-06-14T01:57:18;8.18;;;6.00;;
8993;SDS011;4532;50.886;4.700;2023-06-14T01:59:52;6.82;;;6.10;;
8993;SDS011;4532;50.886;4.700;2023-06-14T02:02:21;6.93;;;6.22;;
8993;SDS011;4532;50.886;4.700;2023-06-14T02:04:48;6.65;;;6.05;;
8993;SDS011;4532;50.886;4.700;2023-06-14T02:07:18;8.05;;;6.30;;
8993;SDS011;4532;50.886;4.700;2023-06-14T02:09:47;7.00;;;6.30;;
8993;SDS011;4532;50.886;4.700;2023-06-14T02:12:17;6.78;;;6.03;;
8993;SDS011;4532;50.886;4.700;2023-06-14T02:14:44;7.78;;;6.18;;
8993;SDS011;4532;50.886;4.700;2023-06-14T02:17:11;6.53;;;5.93;;
8993;SDS011;4532;50.886;4.700;2023-06-14T02:19:41;9.43;;;6.10;;
8993;SDS011;4532;50.886;4.700;2023-06-14T02:22:11;8.60;;;6.18;;
8993;SDS011;4532;50.886;4.700;2023-06-14T02:24:41;9.00;;;6.30;;
8993;SDS011;4532;50.886;4.700;2023-06-14T02:27:12;9.63;;;6.70;;
8993;SDS011;4532;50.886;4.700;2023-06-14T02:29:39;7.68;;;6.03;;
8993;SDS011;4532;50.886;4.700;2023-06-14T02:32:11;8.13;;;5.57;;
8993;SDS011;4532;50.886;4.700;2023-06-14T02:34:40;7.82;;;5.70;;
8993;SDS011;4532;50.886;4.700;2023-06-14T02:37:10;7.00;;;6.30;;
8993;SDS011;4532;50.886;4.700;2023-06-14T02:39:42;8.93;;;6.35;;
8993;SDS011;4532;50.886;4.700;2023-06-14T02:42:11;6.88;;;5.90;;
8993;SDS011;4532;50.886;4.700;2023-06-14T02:44:41;6.97;;;6.28;;
8993;SDS011;4532;50.886;4.700;2023-06-14T02:47:11;7.88;;;6.72;;
8993;SDS011;4532;50.886;4.700;2023-06-14T02:49:38;7.05;;;6.32;;
8993;SDS011;4532;50.886;4.700;2023-06-14T02:52:08;7.43;;;6.72;;
8993;SDS011;4532;50.886;4.700;2023-06-14T02:54:37;7.93;;;6.15;;
8993;SDS011;4532;50.886;4.700;2023-06-14T02:57:05;8.05;;;6.60;;
8993;SDS011;4532;50.886;4.700;2023-06-14T02:59:34;7.63;;;6.90;;
8993;SDS011;4532;50.886;4.700;2023-06-14T03:02:01;8.85;;;6.30;;
8993;SDS011;4532;50.886;4.700;2023-06-14T03:04:31;7.55;;;6.43;;
8993;SDS011;4532;50.886;4.700;2023-06-14T03:07:04;7.38;;;6.53;;
8993;SDS011;4532;50.886;4.700;2023-06-14T03:09:36;8.38;;;6.40;;
8993;SDS011;4532;50.886;4.700;2023-06-14T03:12:06;7.50;;;6.70;;
8993;SDS011;4532;50.886;4.700;2023-06-14T03:14:33;7.47;;;6.72;;
8993;SDS011;4532;50.886;4.700;2023-06-14T03:17:02;7.32;;;6.63;;
8993;SDS011;4532;50.886;4.700;2023-06-14T03:19:31;7.72;;;7.03;;
8993;SDS011;4532;50.886;4.700;2023-06-14T03:22:01;7.45;;;6.75;;
8993;SDS011;4532;50.886;4.700;2023-06-14T03:24:29;7.28;;;6.60;;
8993;SDS011;4532;50.886;4.700;2023-06-14T03:27:03;7.72;;;6.95;;
8993;SDS011;4532;50.886;4.700;2023-06-14T03:29:33;8.98;;;7.07;;
8993;SDS011;4532;50.886;4.700;2023-06-14T03:32:03;10.15;;;7.47;;
8993;SDS011;4532;50.886;4.700;2023-06-14T03:34:30;7.43;;;6.68;;
8993;SDS011;4532;50.886;4.700;2023-06-14T03:37:00;9.32;;;7.32;;
8993;SDS011;4532;50.886;4.700;2023-06-14T03:39:29;8.95;;;7.68;;
8993;SDS011;4532;50.886;4.700;2023-06-14T03:42:04;7.82;;;6.85;;
8993;SDS011;4532;50.886;4.700;2023-06-14T03:44:31;7.47;;;6.78;;
8993;SDS011;4532;50.886;4.700;2023-06-14T03:47:01;7.82;;;6.47;;
8993;SDS011;4532;50.886;4.700;2023-06-14T03:49:28;9.52;;;6.88;;
8993;SDS011;4532;50.886;4.700;2023-06-14T03:51:58;7.97;;;7.18;;
8993;SDS011;4532;50.886;4.700;2023-06-14T03:54:29;9.13;;;7.10;;
8993;SDS011;4532;50.886;4.700;2023-06-14T03:57:01;7.68;;;6.85;;
8993;SDS011;4532;50.886;4.700;2023-06-14T03:59:34;7.70;;;6.88;;
8993;SDS011;4532;50.886;4.700;2023-06-14T04:02:01;7.75;;;7.00;;
8993;SDS011;4532;50.886;4.700;2023-06-14T04:04:31;7.63;;;6.45;;
8993;SDS011;4532;50.886;4.700;2023-06-14T04:07:01;7.85;;;7.13;;
8993;SDS011;4532;50.886;4.700;2023-06-14T04:09:29;7.13;;;6.47;;
8993;SDS011;4532;50.886;4.700;2023-06-14T04:11:59;7.65;;;6.80;;
8993;SDS011;4532;50.886;4.700;2023-06-14T04:14:28;7.93;;;6.53;;
8993;SDS011;4532;50.886;4.700;2023-06-14T04:17:00;7.47;;;6.72;;
8993;SDS011;4532;50.886;4.700;2023-06-14T04:19:31;9.70;;;7.53;;
8993;SDS011;4532;50.886;4.700;2023-06-14T04:21:59;8.68;;;7.25;;
8993;SDS011;4532;50.886;4.700;2023-06-14T04:24:33;10.35;;;7.03;;
8993;SDS011;4532;50.886;4.700;2023-06-14T04:27:05;8.20;;;7.18;;
8993;SDS011;4532;50.886;4.700;2023-06-14T04:29:34;13.40;;;7.60;;
8993;SDS011;4532;50.886;4.700;2023-06-14T04:32:02;7.68;;;6.65;;
8993;SDS011;4532;50.886;4.700;2023-06-14T04:34:31;7.35;;;6.55;;
8993;SDS011;4532;50.886;4.700;2023-06-14T04:37:03;9.45;;;6.72;;
8993;SDS011;4532;50.886;4.700;2023-06-14T04:39:34;9.35;;;7.07;;
8993;SDS011;4532;50.886;4.700;2023-06-14T04:42:04;7.75;;;6.95;;
8993;SDS011;4532;50.886;4.700;2023-06-14T04:44:31;8.43;;;7.25;;
8993;SDS011;4532;50.886;4.700;2023-06-14T04:47:01;10.80;;;7.40;;
8993;SDS011;4532;50.886;4.700;2023-06-14T04:49:30;7.55;;;6.70;;
8993;SDS011;4532;50.886;4.700;2023-06-14T04:52:01;10.07;;;7.00;;
8993;SDS011;4532;50.886;4.700;2023-06-14T04:54:31;9.98;;;6.80;;
8993;SDS011;4532;50.886;4.700;2023-06-14T04:57:09;8.10;;;7.00;;
8993;SDS011;4532;50.886;4.700;2023-06-14T04:59:40;9.13;;;7.10;;
8993;SDS011;4532;50.886;4.700;2023-06-14T05:02:07;8.40;;;7.00;;
8993;SDS011;4532;50.886;4.700;2023-06-14T05:04:35;9.13;;;6.90;;
8993;SDS011;4532;50.886;4.700;2023-06-14T05:07:06;9.63;;;7.22;;
8993;SDS011;4532;50.886;4.700;2023-06-14T05:09:35;9.70;;;7.45;;
8993;SDS011;4532;50.886;4.700;2023-06-14T05:12:03;9.45;;;7.47;;
8993;SDS011;4532;50.886;4.700;2023-06-14T05:14:36;10.55;;;7.07;;
8993;SDS011;4532;50.886;4.700;2023-06-14T05:17:04;10.77;;;7.80;;
8993;SDS011;4532;50.886;4.700;2023-06-14T05:19:34;7.93;;;7.13;;
8993;SDS011;4532;50.886;4.700;2023-06-14T05:22:04;7.72;;;6.57;;
8993;SDS011;4532;50.886;4.700;2023-06-14T05:24:34;9.25;;;7.53;;
8993;SDS011;4532;50.886;4.700;2023-06-14T05:27:03;10.52;;;7.80;;
8993;SDS011;4532;50.886;4.700;2023-06-14T05:29:33;11.05;;;7.82;;
8993;SDS011;4532;50.886;4.700;2023-06-14T05:32:01;8.18;;;7.28;;
8993;SDS011;4532;50.886;4.700;2023-06-14T05:34:32;8.27;;;7.45;;
8993;SDS011;4532;50.886;4.700;2023-06-14T05:37:00;9.38;;;7.10;;
8993;SDS011;4532;50.886;4.700;2023-06-14T05:39:27;12.32;;;8.13;;
8993;SDS011;4532;50.886;4.700;2023-06-14T05:41:54;10.43;;;7.93;;
8993;SDS011;4532;50.886;4.700;2023-06-14T05:44:22;12.68;;;7.50;;
8993;SDS011;4532;50.886;4.700;2023-06-14T05:46:49;11.65;;;7.50;;
8993;SDS011;4532;50.886;4.700;2023-06-14T05:49:16;11.20;;;7.03;;
8993;SDS011;4532;50.886;4.700;2023-06-14T05:51:44;9.52;;;7.47;;
8993;SDS011;4532;50.886;4.700;2023-06-14T05:54:11;10.13;;;6.90;;
8993;SDS011;4532;50.886;4.700;2023-06-14T05:56:40;9.90;;;7.13;;
8993;SDS011;4532;50.886;4.700;2023-06-14T05:59:07;11.73;;;7.45;;
8993;SDS011;4532;50.886;4.700;2023-06-14T06:01:35;8.88;;;6.80;;
8993;SDS011;4532;50.886;4.700;2023-06-14T06:04:11;11.15;;;7.47;;
8993;SDS011;4532;50.886;4.700;2023-06-14T06:06:48;12.60;;;7.53;;
8993;SDS011;4532;50.886;4.700;2023-06-14T06:09:17;11.32;;;7.28;;
8993;SDS011;4532;50.886;4.700;2023-06-14T06:11:47;13.45;;;7.75;;
8993;SDS011;4532;50.886;4.700;2023-06-14T06:14:20;11.63;;;7.00;;
8993;SDS011;4532;50.886;4.700;2023-06-14T06:16:47;12.45;;;7.55;;
8993;SDS011;4532;50.886;4.700;2023-06-14T06:19:19;11.88;;;6.88;;
8993;SDS011;4532;50.886;4.700;2023-06-14T06:21:48;8.13;;;6.30;;
8993;SDS011;4532;50.886;4.700;2023-06-14T06:24:16;10.48;;;6.68;;
8993;SDS011;4532;50.886;4.700;2023-06-14T06:26:43;7.88;;;7.00;;
8993;SDS011;4532;50.886;4.700;2023-06-14T06:29:10;8.68;;;6.80;;
8993;SDS011;4532;50.886;4.700;2023-06-14T06:31:38;8.40;;;5.80;;
8993;SDS011;4532;50.886;4.700;2023-06-14T06:34:05;11.48;;;6.50;;
8993;SDS011;4532;50.886;4.700;2023-06-14T06:36:32;8.57;;;6.63;;
8993;SDS011;4532;50.886;4.700;2023-06-14T06:39:02;8.48;;;6.35;;
8993;SDS011;4532;50.886;4.700;2023-06-14T06:41:37;11.55;;;6.32;;
8993;SDS011;4532;50.886;4.700;2023-06-14T06:44:07;9.10;;;6.30;;
8993;SDS011;4532;50.886;4.700;2023-06-14T06:46:34;7.45;;;6.60;;
8993;SDS011;4532;50.886;4.700;2023-06-14T06:49:06;9.02;;;7.35;;
8993;SDS011;4532;50.886;4.700;2023-06-14T06:51:34;9.05;;;6.30;;
8993;SDS011;4532;50.886;4.700;2023-06-14T06:54:08;9.13;;;6.25;;
8993;SDS011;4532;50.886;4.700;2023-06-14T06:56:38;9.38;;;7.00;;
8993;SDS011;4532;50.886;4.700;2023-06-14T06:59:05;8.32;;;6.30;;
8993;SDS011;4532;50.886;4.700;2023-06-14T07:01:35;9.52;;;6.40;;
8993;SDS011;4532;50.886;4.700;2023-06-14T07:04:05;7.70;;;6.88;;
8993;SDS011;4532;50.886;4.700;2023-06-14T07:06:32;11.90;;;6.50;;
8993;SDS011;4532;50.886;4.700;2023-06-14T07:09:02;8.15;;;6.55;;
8993;SDS011;4532;50.886;4.700;2023-06-14T07:11:31;7.93;;;6.80;;
8993;SDS011;4532;50.886;4.700;2023-06-14T07:13:58;8.75;;;6.30;;
8993;SDS011;4532;50.886;4.700;2023-06-14T07:16:28;7.70;;;5.90;;
8993;SDS011;4532;50.886;4.700;2023-06-14T07:18:58;8.93;;;6.65;;
8993;SDS011;4532;50.886;4.700;2023-06-14T07:21:29;7.53;;;6.45;;
8993;SDS011;4532;50.886;4.700;2023-06-14T07:24:01;8.65;;;6.10;;
8993;SDS011;4532;50.886;4.700;2023-06-14T07:26:28;7.88;;;6.13;;
8993;SDS011;4532;50.886;4.700;2023-06-14T07:29:00;8.63;;;7.10;;
8993;SDS011;4532;50.886;4.700;2023-06-14T07:31:30;6.63;;;5.97;;
8993;SDS011;4532;50.886;4.700;2023-06-14T07:34:00;8.88;;;6.50;;
8993;SDS011;4532;50.886;4.700;2023-06-14T07:36:27;8.52;;;6.35;;
8993;SDS011;4532;50.886;4.700;2023-06-14T07:38:55;8.23;;;6.32;;
8993;SDS011;4532;50.886;4.700;2023-06-14T07:41:24;13.75;;;6.97;;
8993;SDS011;4532;50.886;4.700;2023-06-14T07:43:54;8.35;;;6.20;;
8993;SDS011;4532;50.886;4.700;2023-06-14T07:46:23;8.18;;;6.43;;
8993;SDS011;4532;50.886;4.700;2023-06-14T07:48:51;7.28;;;5.70;;
8993;SDS011;4532;50.886;4.700;2023-06-14T07:51:20;8.70;;;6.28;;
8993;SDS011;4532;50.886;4.700;2023-06-14T07:53:52;6.43;;;5.82;;
8993;SDS011;4532;50.886;4.700;2023-06-14T07:56:20;7.45;;;5.82;;
8993;SDS011;4532;50.886;4.700;2023-06-14T07:58:48;6.40;;;5.80;;
8993;SDS011;4532;50.886;4.700;2023-06-14T08:01:19;9.38;;;5.85;;
8993;SDS011;4532;50.886;4.700;2023-06-14T08:03:47;7.10;;;5.97;;
8993;SDS011;4532;50.886;4.700;2023-06-14T08:06:14;7.47;;;6.00;;
8993;SDS011;4532;50.886;4.700;2023-06-14T08:08:48;6.43;;;5.80;;
8993;SDS011;4532;50.886;4.700;2023-06-14T08:11:16;8.95;;;5.82;;
8993;SDS011;4532;50.886;4.700;2023-06-14T08:13:46;6.35;;;5.70;;
8993;SDS011;4532;50.886;4.700;2023-06-14T08:16:13;7.28;;;5.85;;
8993;SDS011;4532;50.886;4.700;2023-06-14T08:18:40;7.75;;;5.75;;
8993;SDS011;4532;50.886;4.700;2023-06-14T08:21:10;6.68;;;6.00;;
8993;SDS011;4532;50.886;4.700;2023-06-14T08:23:40;7.50;;;5.93;;
8993;SDS011;4532;50.886;4.700;2023-06-14T08:26:10;9.95;;;5.57;;
8993;SDS011;4532;50.886;4.700;2023-06-14T08:28:40;9.40;;;6.53;;
8993;SDS011;4532;50.886;4.700;2023-06-14T08:31:08;6.47;;;5.78;;
8993;SDS011;4532;50.886;4.700;2023-06-14T08:33:35;7.28;;;6.03;;
8993;SDS011;4532;50.886;4.700;2023-06-14T08:36:08;6.85;;;6.05;;
8993;SDS011;4532;50.886;4.700;2023-06-14T08:38:37;6.90;;;6.20;;
8993;SDS011;4532;50.886;4.700;2023-06-14T08:41:05;6.47;;;5.63;;
8993;SDS011;4532;50.886;4.700;2023-06-14T08:43:33;8.88;;;5.68;;
8993;SDS011;4532;50.886;4.700;2023-06-14T08:46:05;7.97;;;6.10;;
8993;SDS011;4532;50.886;4.700;2023-06-14T08:48:38;10.40;;;6.03;;
8993;SDS011;4532;50.886;4.700;2023-06-14T08:51:06;13.70;;;6.70;;
8993;SDS011;4532;50.886;4.700;2023-06-14T08:53:37;12.25;;;6.70;;
8993;SDS011;4532;50.886;4.700;2023-06-14T08:56:10;10.05;;;6.38;;
8993;SDS011;4532;50.886;4.700;2023-06-14T08:58:44;8.63;;;5.65;;
8993;SDS011;4532;50.886;4.700;2023-06-14T09:01:14;9.82;;;6.38;;
8993;SDS011;4532;50.886;4.700;2023-06-14T09:03:47;7.43;;;5.38;;
8993;SDS011;4532;50.886;4.700;2023-06-14T09:06:17;8.95;;;6.03;;
8993;SDS011;4532;50.886;4.700;2023-06-14T09:08:46;7.57;;;5.47;;
8993;SDS011;4532;50.886;4.700;2023-06-14T09:11:15;6.65;;;5.88;;
8993;SDS011;4532;50.886;4.700;2023-06-14T09:13:48;8.85;;;5.82;;
8993;SDS011;4532;50.886;4.700;2023-06-14T09:16:21;8.90;;;5.50;;
8993;SDS011;4532;50.886;4.700;2023-06-14T09:18:51;8.52;;;5.72;;
8993;SDS011;4532;50.886;4.700;2023-06-14T09:21:20;7.68;;;5.60;;
8993;SDS011;4532;50.886;4.700;2023-06-14T09:23:50;10.20;;;5.57;;
8993;SDS011;4532;50.886;4.700;2023-06-14T09:26:23;9.32;;;5.47;;
8993;SDS011;4532;50.886;4.700;2023-06-14T09:28:50;7.35;;;5.55;;
8993;SDS011;4532;50.886;4.700;2023-06-14T09:31:18;8.93;;;5.55;;
8993;SDS011;4532;50.886;4.700;2023-06-14T09:33:49;8.50;;;5.15;;
8993;SDS011;4532;50.886;4.700;2023-06-14T09:36:24;8.68;;;5.40;;
8993;SDS011;4532;50.886;4.700;2023-06-14T09:41:22;8.63;;;4.93;;
8993;SDS011;4532;50.886;4.700;2023-06-14T09:44:01;5.85;;;5.10;;
8993;SDS011;4532;50.886;4.700;2023-06-14T09:46:36;6.80;;;4.90;;
8993;SDS011;4532;50.886;4.700;2023-06-14T09:49:04;9.57;;;5.07;;
8993;SDS011;4532;50.886;4.700;2023-06-14T09:51:36;5.95;;;4.88;;
8993;SDS011;4532;50.886;4.700;2023-06-14T09:54:16;6.38;;;4.65;;
8993;SDS011;4532;50.886;4.700;2023-06-14T09:56:47;6.72;;;4.90;;
8993;SDS011;4532;50.886;4.700;2023-06-14T09:59:25;6.93;;;5.05;;
8993;SDS011;4532;50.886;4.700;2023-06-14T10:02:03;5.40;;;4.40;;
8993;SDS011;4532;50.886;4.700;2023-06-14T10:04:38;8.73;;;4.88;;
8993;SDS011;4532;50.886;4.700;2023-06-14T10:07:19;4.95;;;4.45;;
8993;SDS011;4532;50.886;4.700;2023-06-14T10:09:56;6.13;;;4.70;;
8993;SDS011;4532;50.886;4.700;2023-06-14T10:12:26;7.55;;;5.13;;
8993;SDS011;4532;50.886;4.700;2023-06-14T10:14:54;6.80;;;4.90;;
8993;SDS011;4532;50.886;4.700;2023-06-14T10:17:42;6.57;;;4.97;;
8993;SDS011;4532;50.886;4.700;2023-06-14T10:23:23;6.18;;;4.18;;
8993;SDS011;4532;50.886;4.700;2023-06-14T10:25:58;5.70;;;4.88;;
8993;SDS011;4532;50.886;4.700;2023-06-14T10:28:28;5.47;;;4.60;;
8993;SDS011;4532;50.886;4.700;2023-06-14T10:31:08;7.03;;;4.80;;
8993;SDS011;4532;50.886;4.700;2023-06-14T10:33:55;9.73;;;5.43;;
8993;SDS011;4532;50.886;4.700;2023-06-14T10:36:30;5.68;;;5.00;;
8993;SDS011;4532;50.886;4.700;2023-06-14T10:41:42;6.88;;;4.50;;
8993;SDS011;4532;50.886;4.700;2023-06-14T10:46:52;5.32;;;4.20;;
8993;SDS011;4532;50.886;4.700;2023-06-14T10:49:35;6.57;;;4.22;;
8993;SDS011;4532;50.886;4.700;2023-06-14T10:52:15;5.55;;;3.88;;
8993;SDS011;4532;50.886;4.700;2023-06-14T10:57:49;4.38;;;3.88;;
8993;SDS011;4532;50.886;4.700;2023-06-14T11:00:20;7.47;;;4.15;;
8993;SDS011;4532;50.886;4.700;2023-06-14T13:03:23;4.07;;;2.40;;
8993;SDS011;4532;50.886;4.700;2023-06-14T13:05:51;6.53;;;2.47;;
8993;SDS011;4532;50.886;4.700;2023-06-14T13:08:21;4.47;;;2.10;;
8993;SDS011;4532;50.886;4.700;2023-06-14T13:10:55;8.65;;;2.90;;
8993;SDS011;4532;50.886;4.700;2023-06-14T13:13:30;3.53;;;2.22;;
8993;SDS011;4532;50.886;4.700;2023-06-14T13:16:01;3.53;;;1.85;;
8993;SDS011;4532;50.886;4.700;2023-06-14T13:18:31;3.38;;;2.10;;
8993;SDS011;4532;50.886;4.700;2023-06-14T13:21:03;2.40;;;2.05;;
8993;SDS011;4532;50.886;4.700;2023-06-14T13:23:30;5.72;;;2.60;;
8993;SDS011;4532;50.886;4.700;2023-06-14T13:26:00;7.35;;;2.58;;
8993;SDS011;4532;50.886;4.700;2023-06-14T13:28:30;5.65;;;1.90;;
8993;SDS011;4532;50.886;4.700;2023-06-14T13:30:58;3.40;;;1.83;;
8993;SDS011;4532;50.886;4.700;2023-06-14T13:33:33;4.75;;;2.00;;
8993;SDS011;4532;50.886;4.700;2023-06-14T13:36:05;2.97;;;1.67;;
8993;SDS011;4532;50.886;4.700;2023-06-14T13:38:34;7.13;;;1.80;;
8993;SDS011;4532;50.886;4.700;2023-06-14T13:41:01;2.67;;;1.60;;
8993;SDS011;4532;50.886;4.700;2023-06-14T13:43:32;3.35;;;1.70;;
8993;SDS011;4532;50.886;4.700;2023-06-14T13:46:04;1.50;;;1.40;;
8993;SDS011;4532;50.886;4.700;2023-06-14T13:48:34;5.28;;;2.08;;
8993;SDS011;4532;50.886;4.700;2023-06-14T13:51:01;4.47;;;1.80;;
8993;SDS011;4532;50.886;4.700;2023-06-14T13:53:33;2.92;;;1.48;;
8993;SDS011;4532;50.886;4.700;2023-06-14T13:56:02;3.13;;;1.85;;
8993;SDS011;4532;50.886;4.700;2023-06-14T13:58:32;2.05;;;1.50;;
8993;SDS011;4532;50.886;4.700;2023-06-14T14:01:02;6.20;;;1.70;;
8993;SDS011;4532;50.886;4.700;2023-06-14T14:03:29;2.88;;;1.52;;
8993;SDS011;4532;50.886;4.700;2023-06-14T14:06:00;5.20;;;1.80;;
8993;SDS011;4532;50.886;4.700;2023-06-14T14:08:32;4.15;;;1.85;;
8993;SDS011;4532;50.886;4.700;2023-06-14T14:10:59;2.17;;;1.50;;
8993;SDS011;4532;50.886;4.700;2023-06-14T14:13:31;2.20;;;1.35;;
8993;SDS011;4532;50.886;4.700;2023-06-14T14:16:05;3.97;;;1.60;;
8993;SDS011;4532;50.886;4.700;2023-06-14T14:18:35;3.10;;;1.80;;
8993;SDS011;4532;50.886;4.700;2023-06-14T14:21:07;2.03;;;1.83;;
8993;SDS011;4532;50.886;4.700;2023-06-14T14:23:37;3.72;;;1.95;;
8993;SDS011;4532;50.886;4.700;2023-06-14T14:26:10;5.93;;;2.20;;
8993;SDS011;4532;50.886;4.700;2023-06-14T14:28:42;4.30;;;1.95;;
8993;SDS011;4532;50.886;4.700;2023-06-14T14:31:14;4.43;;;1.98;;
8993;SDS011;4532;50.886;4.700;2023-06-14T14:33:49;4.03;;;1.75;;
8993;SDS011;4532;50.886;4.700;2023-06-14T14:36:16;3.75;;;2.13;;
8993;SDS011;4532;50.886;4.700;2023-06-14T14:38:43;4.20;;;2.03;;
8993;SDS011;4532;50.886;4.700;2023-06-14T14:41:18;3.33;;;1.98;;
8993;SDS011;4532;50.886;4.700;2023-06-14T14:43:48;3.28;;;1.90;;
8993;SDS011;4532;50.886;4.700;2023-06-14T14:46:15;2.20;;;1.88;;
8993;SDS011;4532;50.886;4.700;2023-06-14T14:48:43;3.50;;;2.22;;
8993;SDS011;4532;50.886;4.700;2023-06-14T14:51:15;3.08;;;1.98;;
8993;SDS011;4532;50.886;4.700;2023-06-14T14:53:45;4.82;;;2.63;;
8993;SDS011;4532;50.886;4.700;2023-06-14T14:56:14;3.65;;;2.17;;
8993;SDS011;4532;50.886;4.700;2023-06-14T14:58:44;2.15;;;1.90;;
8993;SDS011;4532;50.886;4.700;2023-06-14T15:01:15;2.63;;;1.77;;
8993;SDS011;4532;50.886;4.700;2023-06-14T15:03:47;2.92;;;2.20;;
8993;SDS011;4532;50.886;4.700;2023-06-14T15:06:25;4.60;;;2.33;;
8993;SDS011;4532;50.886;4.700;2023-06-14T15:11:22;1.98;;;1.77;;
8993;SDS011;4532;50.886;4.700;2023-06-14T15:16:21;4.97;;;2.70;;
8993;SDS011;4532;50.886;4.700;2023-06-14T15:31:18;8.05;;;2.50;;
8993;SDS011;4532;50.886;4.700;2023-06-14T15:38:48;4.10;;;2.28;;
8993;SDS011;4532;50.886;4.700;2023-06-14T15:46:12;2.50;;;1.70;;
8993;SDS011;4532;50.886;4.700;2023-06-14T15:48:48;3.35;;;1.80;;
8993;SDS011;4532;50.886;4.700;2023-06-14T16:06:07;1.63;;;1.50;;
8993;SDS011;4532;50.886;4.700;2023-06-14T16:08:34;3.90;;;1.60;;
8993;SDS011;4532;50.886;4.700;2023-06-14T16:16:01;3.05;;;1.60;;
8993;SDS011;4532;50.886;4.700;2023-06-14T16:18:29;5.28;;;1.88;;
8993;SDS011;4532;50.886;4.700;2023-06-14T16:20:59;2.25;;;1.60;;
8993;SDS011;4532;50.886;4.700;2023-06-14T16:23:35;5.13;;;2.03;;
8993;SDS011;4532;50.886;4.700;2023-06-14T16:26:04;2.05;;;1.40;;
8993;SDS011;4532;50.886;4.700;2023-06-14T16:28:36;2.83;;;1.70;;
8993;SDS011;4532;50.886;4.700;2023-06-14T16:31:09;3.42;;;1.30;;
8993;SDS011;4532;50.886;4.700;2023-06-14T16:33:39;2.13;;;1.20;;
8993;SDS011;4532;50.886;4.700;2023-06-14T16:36:08;6.18;;;1.52;;
8993;SDS011;4532;50.886;4.700;2023-06-14T16:38:36;1.45;;;1.20;;
8993;SDS011;4532;50.886;4.700;2023-06-14T16:41:05;1.50;;;1.40;;
8993;SDS011;4532;50.886;4.700;2023-06-14T16:43:35;3.17;;;1.38;;
8993;SDS011;4532;50.886;4.700;2023-06-14T16:46:04;1.70;;;1.35;;
8993;SDS011;4532;50.886;4.700;2023-06-14T16:48:36;1.83;;;1.38;;
8993;SDS011;4532;50.886;4.700;2023-06-14T16:51:04;2.80;;;1.40;;
8993;SDS011;4532;50.886;4.700;2023-06-14T16:53:34;2.55;;;1.52;;
8993;SDS011;4532;50.886;4.700;2023-06-14T16:56:01;3.60;;;1.38;;
8993;SDS011;4532;50.886;4.700;2023-06-14T16:58:32;1.40;;;1.30;;
8993;SDS011;4532;50.886;4.700;2023-06-14T17:00:59;5.03;;;1.48;;
8993;SDS011;4532;50.886;4.700;2023-06-14T17:03:26;2.30;;;1.25;;
8993;SDS011;4532;50.886;4.700;2023-06-14T17:05:57;4.70;;;1.27;;
8993;SDS011;4532;50.886;4.700;2023-06-14T17:08:25;1.85;;;1.35;;
8993;SDS011;4532;50.886;4.700;2023-06-14T17:10:52;4.25;;;1.25;;
8993;SDS011;4532;50.886;4.700;2023-06-14T17:13:23;4.20;;;1.38;;
8993;SDS011;4532;50.886;4.700;2023-06-14T17:15:53;5.43;;;1.70;;
8993;SDS011;4532;50.886;4.700;2023-06-14T17:18:23;2.83;;;1.65;;
8993;SDS011;4532;50.886;4.700;2023-06-14T17:20:50;1.70;;;1.27;;
8993;SDS011;4532;50.886;4.700;2023-06-14T17:23:20;2.92;;;1.52;;
8993;SDS011;4532;50.886;4.700;2023-06-14T17:25:51;2.78;;;1.45;;
8993;SDS011;4532;50.886;4.700;2023-06-14T17:28:20;2.38;;;1.23;;
8993;SDS011;4532;50.886;4.700;2023-06-14T17:30:47;4.95;;;1.45;;
8993;SDS011;4532;50.886;4.700;2023-06-14T17:33:14;1.38;;;1.23;;
8993;SDS011;4532;50.886;4.700;2023-06-14T17:35:49;1.42;;;1.00;;
8993;SDS011;4532;50.886;4.700;2023-06-14T17:38:18;4.13;;;1.35;;
8993;SDS011;4532;50.886;4.700;2023-06-14T17:40:45;3.78;;;1.33;;
8993;SDS011;4532;50.886;4.700;2023-06-14T17:43:17;1.40;;;1.05;;
8993;SDS011;4532;50.886;4.700;2023-06-14T17:45:44;3.22;;;1.20;;
8993;SDS011;4532;50.886;4.700;2023-06-14T17:48:12;3.63;;;1.13;;
8993;SDS011;4532;50.886;4.700;2023-06-14T17:50:39;2.25;;;1.10;;
8993;SDS011;4532;50.886;4.700;2023-06-14T17:53:06;3.58;;;1.67;;
8993;SDS011;4532;50.886;4.700;2023-06-14T17:55:38;2.90;;;1.10;;
8993;SDS011;4532;50.886;4.700;2023-06-14T17:58:08;1.40;;;1.00;;
8993;SDS011;4532;50.886;4.700;2023-06-14T18:00:38;3.15;;;1.40;;
8993;SDS011;4532;50.886;4.700;2023-06-14T18:03:05;1.30;;;1.10;;
8993;SDS011;4532;50.886;4.700;2023-06-14T18:05:32;3.40;;;1.23;;
8993;SDS011;4532;50.886;4.700;2023-06-14T18:08:00;2.40;;;1.30;;
8993;SDS011;4532;50.886;4.700;2023-06-14T18:10:27;2.97;;;1.45;;
8993;SDS011;4532;50.886;4.700;2023-06-14T18:12:56;2.53;;;1.20;;
8993;SDS011;4532;50.886;4.700;2023-06-14T18:15:26;2.85;;;1.30;;
8993;SDS011;4532;50.886;4.700;2023-06-14T18:17:56;1.23;;;1.13;;
8993;SDS011;4532;50.886;4.700;2023-06-14T18:20:23;2.55;;;1.25;;
8993;SDS011;4532;50.886;4.700;2023-06-14T18:22:53;1.65;;;1.40;;
8993;SDS011;4532;50.886;4.700;2023-06-14T18:25:22;1.70;;;1.25;;
8993;SDS011;4532;50.886;4.700;2023-06-14T18:27:52;2.58;;;1.40;;
8993;SDS011;4532;50.886;4.700;2023-06-14T18:30:24;2.58;;;1.50;;
8993;SDS011;4532;50.886;4.700;2023-06-14T18:32:52;2.38;;;1.35;;
8993;SDS011;4532;50.886;4.700;2023-06-14T18:35:23;1.83;;;1.20;;
8993;SDS011;4532;50.886;4.700;2023-06-14T18:37:53;1.50;;;1.10;;